Aérodrome :
LOGIN :

S'inscrire | Disclaimer

   EN    FR    IT 

 










Légende :    VFR   VFR Marginal   IFR   IFR Intensif   IFR Très Intensif
Visi : 
Plafond : 
>= 8 km
>= 3000ft
5 à 8 km
1000 à 3000 ft
1500m à 5 km
500 à 1000 ft
800 à 1500m
200 à 500 ft
< 800m
< 200 ft
Symboles :   Orages  Brouillard  Fortes neiges  Fortes précipitations  Vent > 20 kt
SIGMETs :   Divers  Orages  Givrage  Turbulence  Onde Orograph.  Cendres Volcan.







- Altitude de l'aérodrome : 614 ft
- Code IATA : CRL


EBCI - Charleroi

DERNIER METAR :
  • 131250Z 20012KT 9999 -RA BKN006 BKN008 05/04 Q1000 TEMPO 22018G28KT 4000 RADZ BKN005

METARs EXPIRÉS :
  • 131220Z 20015KT 9999 -RA BKN006 BKN008 04/03 Q1001 TEMPO 22018G28KT 4000 RADZ BKN005
  • 131150Z 20016KT 9999 BKN007 BKN009 04/03 Q1001 TEMPO 22018G28KT 4000 RADZ BKN005
  • 131120Z 22014KT 9999 -RADZ BKN006 BKN009 04/03 Q1002 TEMPO 22018G28KT 4000 RADZ BKN005
  • 131050Z 21017KT 9999 BKN006 BKN009 03/03 Q1002 TEMPO 20020G30KT 4000 RADZ BKN005
  • 131020Z 20019G29KT 8000 -RADZ BKN006 BKN010 03/02 Q1003 TEMPO 20020G30KT 4000 RADZ BKN005

TAF TAF EBCI
Valide du 13 à 12h jusqu'au 14 à 18h UTC


131115Z 1312/1418 22013KT 8000 -RA SCT006 BKN012
TEMPO 1315/1318 22016G28KT
TEMPO 1312/1320 3000 RA SHRA BKN006 BKN012TCU
BECMG 1318/1320 26012KT 9999 SCT015
TEMPO 1323/1402 27018G30KT 3000 SHRASN BKN006 BKN014CB
TEMPO 1407/1418 24015G25KT 3000 SHRA SHRASN BKN006 BKN012CB
Pas de NOTAMs connus pour ce terrain.



MET'MAP, la Météo Aéronautique d'un coup d'oeil ! - Copyright ORBIFLY Décembre 2007 - Disclaimer

ORBIFLY MET'MAP TEAM :

Programmation & Développement : Alexandra Zaïnal
Conception & Développement : Baudouin d'Aumeries
Co-Programmation & Développement : Marc-Olivier Méhu
Soutien technique & logistique : Manuel Goepfert

Contact : metmap@orbifly.com




SOURCES & CREDITS :

   NOAA